Time;durP1;ratioP1;P1;durP2;ratioP2;P2;SDS_P1;SDS_P2;PMS_P1;PMS_P2;Temp;Humidity;BMP_temperature;BMP_pressure;BME280_temperature;BME280_humidity;BME280_pressure;Samples;Min_cycle;Max_cycle;Signal;HPM_P1;HPM_P2
2024/04/04 00:00:09;;;;;;;6.90;6.20;;;10.50;99.90;;;;;;5087479;28;20197;-59
2024/04/04 00:02:39;;;;;;;7.60;5.90;;;10.50;99.90;;;;;;5084879;28;20212;-59
2024/04/04 00:05:06;;;;;;;7.00;6.37;;;10.50;99.90;;;;;;5070040;28;20194;-60
2024/04/04 00:07:32;;;;;;;7.07;6.37;;;10.50;99.90;;;;;;5089607;28;20220;-58
2024/04/04 00:10:00;;;;;;;7.33;6.60;;;10.50;99.90;;;;;;5064940;28;20709;-59
2024/04/04 00:12:28;;;;;;;7.90;7.10;;;10.50;99.90;;;;;;5077237;28;20205;-59
2024/04/04 00:14:55;;;;;;;7.93;7.23;;;10.50;99.90;;;;;;5086838;28;20194;-60
2024/04/04 00:17:21;;;;;;;8.77;7.47;;;10.50;99.90;;;;;;5087211;28;20300;-60
2024/04/04 00:19:48;;;;;;;7.57;6.87;;;10.50;99.90;;;;;;5076918;28;20295;-59
2024/04/04 00:22:14;;;;;;;8.23;7.03;;;10.50;99.90;;;;;;5079494;28;20214;-60
2024/04/04 00:24:41;;;;;;;10.67;7.33;;;10.50;99.90;;;;;;5090798;28;20563;-59
2024/04/04 00:27:07;;;;;;;8.43;7.53;;;10.50;99.90;;;;;;5047662;28;20218;-60
2024/04/04 00:29:35;;;;;;;8.23;7.40;;;10.50;99.90;;;;;;5081385;28;20204;-60
2024/04/04 00:32:01;;;;;;;10.60;7.40;;;10.40;99.90;;;;;;5083186;28;20190;-59
2024/04/04 00:34:28;;;;;;;9.07;7.63;;;10.40;99.90;;;;;;5076575;28;20232;-58
2024/04/04 00:36:55;;;;;;;7.27;6.60;;;10.50;99.90;;;;;;5077031;28;20656;-58
2024/04/04 00:39:21;;;;;;;8.60;7.17;;;10.40;99.90;;;;;;5084603;28;20197;-60
2024/04/04 00:41:47;;;;;;;10.17;7.50;;;10.50;99.90;;;;;;5057807;28;20249;-58
2024/04/04 00:44:14;;;;;;;10.20;7.53;;;10.40;99.90;;;;;;5074681;28;20340;-60
2024/04/04 00:46:41;;;;;;;8.77;7.33;;;10.50;99.90;;;;;;5091529;28;20264;-60
2024/04/04 00:49:08;;;;;;;10.50;7.40;;;10.50;99.90;;;;;;5084425;28;20275;-57
2024/04/04 00:51:34;;;;;;;9.83;8.00;;;10.50;99.90;;;;;;5075529;28;20719;-57
2024/04/04 00:54:01;;;;;;;11.23;7.90;;;10.50;99.90;;;;;;5081975;28;20201;-57
2024/04/04 00:56:28;;;;;;;8.23;7.40;;;10.50;99.90;;;;;;5055202;28;20228;-60
2024/04/04 00:58:55;;;;;;;9.37;8.23;;;10.50;99.90;;;;;;5072723;28;20218;-60
2024/04/04 01:01:21;;;;;;;8.77;7.87;;;10.50;99.90;;;;;;5084677;28;20198;-60
2024/04/04 01:03:49;;;;;;;10.33;7.90;;;10.50;99.90;;;;;;5070464;28;20319;-59
2024/04/04 01:06:30;;;;;;;13.73;8.40;;;10.50;99.90;;;;;;5082050;28;20220;-60
2024/04/04 01:08:58;;;;;;;8.87;7.70;;;10.50;99.90;;;;;;5083957;28;20220;-60
2024/04/04 01:11:24;;;;;;;11.90;7.77;;;10.50;99.90;;;;;;5089625;28;20202;-59
2024/04/04 01:13:51;;;;;;;9.50;8.17;;;10.50;99.90;;;;;;5057756;28;20220;-57
2024/04/04 01:16:17;;;;;;;9.97;8.27;;;10.50;99.90;;;;;;5084193;28;20941;-60
2024/04/04 01:18:44;;;;;;;10.13;9.00;;;10.50;99.90;;;;;;5090115;28;20214;-60
2024/04/04 01:21:11;;;;;;;14.83;8.73;;;10.50;99.90;;;;;;5076083;28;20892;-60
2024/04/04 01:23:41;;;;;;;13.17;9.40;;;10.50;99.90;;;;;;5084179;28;20683;-62
2024/04/04 01:26:07;;;;;;;10.13;8.63;;;10.50;99.90;;;;;;5085228;28;20184;-60
2024/04/04 01:28:33;;;;;;;14.80;9.60;;;10.50;99.90;;;;;;5065461;28;20221;-59
2024/04/04 01:30:59;;;;;;;10.90;9.80;;;10.50;99.90;;;;;;5076158;28;20242;-59
2024/04/04 01:33:26;;;;;;;10.23;9.17;;;10.50;99.90;;;;;;5085387;28;20190;-60
2024/04/04 01:35:52;;;;;;;11.60;8.80;;;10.50;99.90;;;;;;5087166;28;20612;-59
2024/04/04 01:38:19;;;;;;;11.93;9.03;;;10.50;99.90;;;;;;5071723;28;20217;-60
2024/04/04 01:40:46;;;;;;;12.93;9.37;;;10.50;99.90;;;;;;5087621;28;20193;-60
2024/04/04 01:43:13;;;;;;;11.30;9.47;;;10.50;99.90;;;;;;5056552;28;20318;-60
2024/04/04 01:45:39;;;;;;;13.30;9.70;;;10.50;99.90;;;;;;5078568;28;20202;-60
2024/04/04 01:48:06;;;;;;;13.60;10.17;;;10.40;99.90;;;;;;5081443;28;20259;-59
2024/04/04 01:50:32;;;;;;;15.93;10.03;;;10.50;99.90;;;;;;5086313;28;20194;-60
2024/04/04 01:52:59;;;;;;;14.07;10.33;;;10.40;99.90;;;;;;5066663;28;20536;-59
2024/04/04 01:55:27;;;;;;;11.33;9.67;;;10.50;99.90;;;;;;5069730;28;20224;-60
2024/04/04 01:57:55;;;;;;;14.10;9.93;;;10.40;99.90;;;;;;5074330;28;20311;-59
2024/04/04 02:00:21;;;;;;;13.37;9.80;;;10.40;99.90;;;;;;5078201;28;20343;-59
2024/04/04 02:02:48;;;;;;;13.47;10.30;;;10.40;99.90;;;;;;5063250;28;20254;-59
2024/04/04 02:05:14;;;;;;;14.07;8.87;;;10.40;99.90;;;;;;5072566;28;20264;-59
2024/04/04 02:07:40;;;;;;;17.60;10.37;;;10.40;99.90;;;;;;5069922;28;20229;-59
2024/04/04 02:10:06;;;;;;;11.20;9.60;;;10.40;99.90;;;;;;5075767;28;20717;-59
2024/04/04 02:12:33;;;;;;;11.67;9.70;;;10.40;99.90;;;;;;5075966;28;20194;-60
2024/04/04 02:15:00;;;;;;;15.83;10.77;;;10.40;99.90;;;;;;5043248;28;20580;-57
2024/04/04 02:17:27;;;;;;;13.77;9.57;;;10.40;99.90;;;;;;5067595;28;20268;-59
2024/04/04 02:19:54;;;;;;;16.70;10.43;;;10.40;99.90;;;;;;5069243;28;20190;-60
2024/04/04 02:22:21;;;;;;;12.60;10.10;;;10.40;99.90;;;;;;5062329;28;20216;-59
2024/04/04 02:24:47;;;;;;;15.17;10.20;;;10.40;99.90;;;;;;5064684;28;20899;-60
2024/04/04 02:27:14;;;;;;;14.27;10.20;;;10.40;99.90;;;;;;5078759;28;20270;-59
2024/04/04 02:29:41;;;;;;;14.80;10.00;;;10.40;99.90;;;;;;5049171;28;20882;-59
2024/04/04 02:32:10;;;;;;;14.47;10.30;;;10.40;99.90;;;;;;5068731;28;20238;-60
2024/04/04 02:34:35;;;;;;;13.30;9.67;;;10.40;99.90;;;;;;5074602;28;20186;-60
2024/04/04 02:37:02;;;;;;;14.00;9.33;;;10.40;99.90;;;;;;5074113;28;20218;-60
2024/04/04 02:39:28;;;;;;;12.00;9.20;;;10.40;99.90;;;;;;5062383;28;20259;-59
2024/04/04 02:41:56;;;;;;;14.87;9.30;;;10.30;99.90;;;;;;5065991;28;20252;-59
2024/04/04 02:44:22;;;;;;;12.87;8.83;;;10.30;99.90;;;;;;5056367;28;20292;-58
2024/04/04 02:46:49;;;;;;;11.40;9.27;;;10.30;99.90;;;;;;5054253;28;20197;-60
2024/04/04 02:49:16;;;;;;;10.60;7.80;;;10.30;99.90;;;;;;5083284;28;20194;-59
2024/04/04 02:51:43;;;;;;;12.83;8.73;;;10.30;99.90;;;;;;5056843;28;21275;-58
2024/04/04 02:54:09;;;;;;;13.70;8.23;;;10.30;99.90;;;;;;5080102;28;20628;-59
2024/04/04 02:56:36;;;;;;;12.37;8.27;;;10.30;99.90;;;;;;5056749;28;20206;-58
2024/04/04 02:59:01;;;;;;;12.77;8.40;;;10.30;99.90;;;;;;5069221;28;20290;-59
2024/04/04 03:01:28;;;;;;;10.57;7.50;;;10.30;99.90;;;;;;5041565;28;20360;-58
2024/04/04 03:03:54;;;;;;;9.73;6.97;;;10.30;99.90;;;;;;5076476;28;20205;-60
2024/04/04 03:06:22;;;;;;;9.37;7.17;;;10.20;99.90;;;;;;5070099;28;20555;-59
2024/04/04 03:08:48;;;;;;;7.80;7.00;;;10.20;99.90;;;;;;5061358;28;21216;-60
2024/04/04 03:11:15;;;;;;;9.73;7.47;;;10.20;99.90;;;;;;5064936;28;20207;-59
2024/04/04 03:13:41;;;;;;;11.07;7.17;;;10.20;99.90;;;;;;5065721;28;20202;-59
2024/04/04 03:16:08;;;;;;;9.40;5.93;;;10.20;99.90;;;;;;5055430;28;20297;-60
2024/04/04 03:18:34;;;;;;;9.20;6.20;;;10.20;99.90;;;;;;5070063;28;20213;-59
2024/04/04 03:21:00;;;;;;;10.00;5.90;;;10.10;99.90;;;;;;5078457;28;20202;-60
2024/04/04 03:23:28;;;;;;;7.53;5.40;;;10.20;99.90;;;;;;5063566;28;20611;-59
2024/04/04 03:25:56;;;;;;;12.80;5.90;;;10.10;99.90;;;;;;5069270;28;20210;-60
2024/04/04 03:28:22;;;;;;;6.63;5.50;;;10.10;99.90;;;;;;5062828;28;20230;-58
2024/04/04 03:30:49;;;;;;;7.40;5.23;;;10.20;99.90;;;;;;5043226;28;20204;-58
2024/04/04 03:33:14;;;;;;;9.43;5.40;;;10.10;99.90;;;;;;5056857;28;20213;-59
2024/04/04 03:35:41;;;;;;;10.50;5.53;;;10.10;99.90;;;;;;5076619;28;20194;-61
2024/04/04 03:38:08;;;;;;;6.90;5.83;;;10.10;99.90;;;;;;5070873;28;20206;-60
2024/04/04 03:40:37;;;;;;;9.63;5.43;;;10.10;99.90;;;;;;5058143;28;20200;-59
2024/04/04 03:43:06;;;;;;;7.70;5.10;;;10.10;99.90;;;;;;5065072;28;20226;-59
2024/04/04 03:45:39;;;;;;;8.10;5.27;;;10.10;99.90;;;;;;5058045;28;20231;-61
2024/04/04 03:48:05;;;;;;;12.00;5.73;;;10.10;99.90;;;;;;5037021;28;20825;-59
2024/04/04 03:50:33;;;;;;;7.20;4.60;;;10.10;99.90;;;;;;5066880;28;20206;-59
2024/04/04 03:52:59;;;;;;;9.73;5.17;;;10.10;99.90;;;;;;5080157;28;20653;-59
2024/04/04 03:55:26;;;;;;;6.27;4.57;;;10.10;99.90;;;;;;5062507;28;20287;-60
2024/04/04 03:57:53;;;;;;;7.40;4.67;;;10.00;99.90;;;;;;5064991;28;20234;-60
2024/04/04 04:00:19;;;;;;;7.23;4.30;;;10.00;99.90;;;;;;5063871;28;20194;-59
2024/04/04 04:02:46;;;;;;;7.27;4.40;;;10.00;99.90;;;;;;5055529;28;20218;-59
2024/04/04 04:05:14;;;;;;;10.03;4.90;;;10.00;99.90;;;;;;5067539;28;20273;-59
2024/04/04 04:07:40;;;;;;;7.00;4.50;;;10.00;99.90;;;;;;5065700;28;20241;-60
2024/04/04 04:10:07;;;;;;;8.63;4.63;;;10.00;99.90;;;;;;5073172;28;20247;-59
2024/04/04 04:12:33;;;;;;;8.73;4.90;;;10.00;99.90;;;;;;5057255;28;20271;-60
2024/04/04 04:15:02;;;;;;;11.77;5.03;;;10.00;99.90;;;;;;5066852;28;20207;-59
2024/04/04 04:17:27;;;;;;;5.37;3.93;;;10.00;99.90;;;;;;5040968;28;20233;-59
2024/04/04 04:19:54;;;;;;;6.57;4.63;;;10.00;99.90;;;;;;5072329;28;20194;-61
2024/04/04 04:22:20;;;;;;;7.80;4.57;;;9.90;99.90;;;;;;5055988;28;20217;-59
2024/04/04 04:24:47;;;;;;;8.00;4.63;;;10.00;99.90;;;;;;5054259;28;20193;-59
2024/04/04 04:27:13;;;;;;;6.87;3.77;;;9.90;99.90;;;;;;5048082;28;20704;-61
2024/04/04 04:29:39;;;;;;;5.93;3.70;;;9.90;99.90;;;;;;5064862;28;20198;-59
2024/04/04 04:32:07;;;;;;;6.47;4.00;;;9.90;99.90;;;;;;5064284;28;20242;-60
2024/04/04 04:34:34;;;;;;;10.60;4.30;;;9.90;99.90;;;;;;5049352;28;20293;-60
2024/04/04 04:37:03;;;;;;;6.80;4.00;;;9.90;99.90;;;;;;5062757;28;21747;-60
2024/04/04 04:39:30;;;;;;;6.43;4.03;;;9.90;99.90;;;;;;5059736;28;20229;-59
2024/04/04 04:41:56;;;;;;;4.70;3.80;;;9.90;99.90;;;;;;5061433;28;20371;-61
2024/04/04 04:44:23;;;;;;;6.97;4.13;;;9.90;99.90;;;;;;5065423;28;20219;-61
2024/04/04 04:46:49;;;;;;;7.67;4.30;;;9.90;99.90;;;;;;5065741;28;20928;-60
2024/04/04 04:49:17;;;;;;;8.03;4.10;;;9.90;99.90;;;;;;5044179;28;20197;-59
2024/04/04 04:51:43;;;;;;;12.40;4.10;;;9.80;99.90;;;;;;5059346;28;20784;-61
2024/04/04 04:54:12;;;;;;;9.80;4.70;;;9.80;99.90;;;;;;5067991;28;20198;-59
2024/04/04 04:56:41;;;;;;;8.40;4.17;;;9.80;99.90;;;;;;5067502;28;20247;-61
2024/04/04 04:59:07;;;;;;;7.03;3.60;;;9.70;99.90;;;;;;5061600;28;20202;-63
2024/04/04 05:01:35;;;;;;;7.30;3.63;;;9.70;99.90;;;;;;5067185;28;20244;-59
2024/04/04 05:04:02;;;;;;;4.50;3.67;;;9.70;99.90;;;;;;5036117;28;20222;-59
2024/04/04 05:06:29;;;;;;;8.30;3.63;;;9.60;99.90;;;;;;5065016;28;20234;-60
2024/04/04 05:08:56;;;;;;;6.37;3.90;;;9.60;99.90;;;;;;5061788;28;20216;-60
2024/04/04 05:11:22;;;;;;;6.00;3.57;;;9.60;99.90;;;;;;5052730;28;20207;-59
2024/04/04 05:13:49;;;;;;;9.27;3.57;;;9.60;99.90;;;;;;5070614;28;20222;-60
2024/04/04 05:16:15;;;;;;;5.10;3.37;;;9.60;99.90;;;;;;5058822;28;20765;-59
2024/04/04 05:18:45;;;;;;;7.33;3.47;;;9.60;99.90;;;;;;5062688;28;20284;-59
2024/04/04 05:21:12;;;;;;;9.40;3.53;;;9.50;99.90;;;;;;5046888;28;20298;-60
2024/04/04 05:23:39;;;;;;;6.60;3.27;;;9.50;99.90;;;;;;5065330;28;20759;-60
2024/04/04 05:26:06;;;;;;;4.63;2.90;;;9.50;99.90;;;;;;5061209;28;20202;-60
2024/04/04 05:28:34;;;;;;;6.60;3.40;;;9.50;99.90;;;;;;5060981;28;20742;-61
2024/04/04 05:31:01;;;;;;;8.97;4.10;;;9.50;99.90;;;;;;5064019;28;20204;-60
2024/04/04 05:33:27;;;;;;;5.77;3.03;;;9.50;99.90;;;;;;5066503;28;20231;-59
2024/04/04 05:35:54;;;;;;;6.23;3.07;;;9.50;99.90;;;;;;5051486;28;20201;-60
2024/04/04 05:38:20;;;;;;;4.30;2.93;;;9.60;99.90;;;;;;5069400;28;20820;-60
2024/04/04 05:40:48;;;;;;;3.70;3.30;;;9.60;99.90;;;;;;5060011;28;20198;-60
2024/04/04 05:43:15;;;;;;;11.17;3.47;;;9.60;99.90;;;;;;5053640;28;20217;-59
2024/04/04 05:45:42;;;;;;;5.57;3.70;;;9.60;99.90;;;;;;5069372;28;20221;-58
2024/04/04 05:48:08;;;;;;;7.63;3.30;;;9.70;99.90;;;;;;5062627;28;20214;-57
2024/04/04 05:50:35;;;;;;;6.23;2.97;;;9.70;99.90;;;;;;5069635;28;20256;-57
2024/04/04 05:53:01;;;;;;;6.17;2.70;;;9.70;99.90;;;;;;5041348;28;20988;-59
2024/04/04 05:55:29;;;;;;;6.70;3.17;;;9.80;99.90;;;;;;5060665;28;20201;-60
2024/04/04 05:57:57;;;;;;;5.77;2.37;;;9.80;99.90;;;;;;5068334;28;20216;-59
2024/04/04 06:00:24;;;;;;;6.07;2.80;;;9.80;99.90;;;;;;5062723;28;20209;-60
2024/04/04 06:02:51;;;;;;;5.37;2.67;;;9.80;99.90;;;;;;5051065;28;21805;-60
2024/04/04 06:05:18;;;;;;;5.53;2.13;;;9.90;99.90;;;;;;5076761;28;20195;-59
2024/04/04 06:07:44;;;;;;;5.03;2.40;;;9.90;99.90;;;;;;5051555;28;20233;-59
2024/04/04 06:10:11;;;;;;;3.50;1.80;;;9.90;99.90;;;;;;5060002;28;20330;-59
2024/04/04 06:12:37;;;;;;;3.70;2.77;;;9.90;99.90;;;;;;5049563;28;22567;-60
2024/04/04 06:15:05;;;;;;;6.57;2.20;;;9.90;99.90;;;;;;5067140;28;20802;-58
2024/04/04 06:17:32;;;;;;;5.57;1.83;;;9.90;99.90;;;;;;5065633;28;20218;-59
2024/04/04 06:19:59;;;;;;;4.77;2.20;;;10.00;99.90;;;;;;5055357;28;20198;-59
2024/04/04 06:22:25;;;;;;;3.43;1.70;;;10.00;99.90;;;;;;5052924;28;20224;-59
2024/04/04 06:24:52;;;;;;;5.37;1.67;;;10.00;99.90;;;;;;5068957;28;20335;-60
2024/04/04 06:27:18;;;;;;;6.80;1.87;;;10.00;99.90;;;;;;5052989;28;20245;-58
2024/04/04 06:29:46;;;;;;;5.33;1.77;;;10.00;99.90;;;;;;5053476;28;20268;-59
2024/04/04 06:32:14;;;;;;;5.80;1.93;;;10.00;99.90;;;;;;5060354;28;20244;-59
2024/04/04 06:34:41;;;;;;;6.17;1.77;;;9.90;99.90;;;;;;5065951;28;20236;-58
2024/04/04 06:37:07;;;;;;;3.73;1.80;;;9.90;99.90;;;;;;5030029;28;21649;-58
2024/04/04 06:39:35;;;;;;;3.77;1.70;;;10.00;99.90;;;;;;5070129;28;20198;-60
2024/04/04 06:42:02;;;;;;;6.10;1.80;;;10.00;99.90;;;;;;5045915;28;20202;-60
2024/04/04 06:44:29;;;;;;;4.37;1.63;;;10.10;99.90;;;;;;5059780;28;20204;-59
2024/04/04 06:46:55;;;;;;;3.90;1.70;;;10.20;99.90;;;;;;5067703;28;20583;-60
2024/04/04 06:49:23;;;;;;;4.07;1.60;;;10.30;99.90;;;;;;5066870;28;20193;-61
2024/04/04 06:51:49;;;;;;;5.00;1.57;;;10.40;99.90;;;;;;5064494;28;20197;-60
2024/04/04 06:54:16;;;;;;;5.50;1.50;;;10.40;99.90;;;;;;5032379;28;20294;-59
2024/04/04 06:56:42;;;;;;;7.10;1.43;;;10.40;99.90;;;;;;5061122;28;20220;-58
2024/04/04 06:59:09;;;;;;;5.60;1.50;;;10.40;99.90;;;;;;5060812;28;20219;-58
2024/04/04 07:01:34;;;;;;;4.23;1.63;;;10.40;99.90;;;;;;5043686;28;20203;-57
2024/04/04 07:04:01;;;;;;;4.17;1.17;;;10.40;99.90;;;;;;5067370;28;20222;-58
2024/04/04 07:06:29;;;;;;;3.80;1.03;;;10.40;99.90;;;;;;5042356;28;20673;-58
2024/04/04 07:08:57;;;;;;;3.30;1.73;;;10.40;99.90;;;;;;5042545;28;20218;-58
2024/04/04 07:11:23;;;;;;;5.07;1.33;;;10.30;99.90;;;;;;5062022;28;20230;-59
2024/04/04 07:13:50;;;;;;;5.97;1.43;;;10.30;99.90;;;;;;5065431;28;20878;-58
2024/04/04 07:16:15;;;;;;;4.30;1.30;;;10.40;99.90;;;;;;5061939;28;20619;-58
2024/04/04 07:18:42;;;;;;;3.90;1.37;;;10.40;99.90;;;;;;5066289;28;20279;-58
2024/04/04 07:21:08;;;;;;;6.27;1.10;;;10.40;99.90;;;;;;5061874;28;20590;-58
2024/04/04 07:23:37;;;;;;;5.40;1.43;;;10.50;99.90;;;;;;5034889;28;20217;-57
2024/04/04 07:26:03;;;;;;;6.27;1.47;;;10.60;99.90;;;;;;5060381;28;20194;-57
2024/04/04 07:28:30;;;;;;;2.47;1.33;;;10.70;99.90;;;;;;5055604;28;20210;-59
2024/04/04 07:30:56;;;;;;;5.07;1.30;;;10.80;99.90;;;;;;5054189;28;20213;-58
2024/04/04 07:33:23;;;;;;;3.97;1.40;;;10.90;99.90;;;;;;5064188;28;20178;-58
2024/04/04 07:35:50;;;;;;;3.13;1.00;;;11.00;99.90;;;;;;5051249;28;20968;-59
2024/04/04 07:38:16;;;;;;;10.37;1.40;;;11.00;99.90;;;;;;5059135;28;20222;-58
2024/04/04 07:40:44;;;;;;;1.80;1.30;;;11.10;99.90;;;;;;5031398;28;20293;-58
2024/04/04 07:43:11;;;;;;;3.73;1.50;;;11.20;99.90;;;;;;5049011;28;20255;-58
2024/04/04 07:45:38;;;;;;;1.73;1.03;;;11.40;99.90;;;;;;5048352;28;20523;-57
2024/04/04 07:48:07;;;;;;;3.57;1.53;;;11.40;99.90;;;;;;5067824;28;20305;-58
2024/04/04 07:50:34;;;;;;;3.23;1.00;;;11.50;99.90;;;;;;5055776;28;20210;-58
2024/04/04 07:53:01;;;;;;;5.27;1.00;;;11.60;99.90;;;;;;5071236;28;20185;-58
2024/04/04 07:55:28;;;;;;;3.67;1.37;;;11.70;99.90;;;;;;5047948;28;20197;-57
2024/04/04 07:57:57;;;;;;;5.23;1.30;;;11.70;99.90;;;;;;5055986;28;20215;-58
2024/04/04 08:00:24;;;;;;;5.13;1.10;;;11.80;99.90;;;;;;5064142;28;20198;-59
2024/04/04 08:02:51;;;;;;;3.80;1.40;;;11.80;99.90;;;;;;5077087;28;20197;-57
2024/04/04 08:05:18;;;;;;;2.50;1.27;;;11.90;99.90;;;;;;5058079;28;20213;-59
2024/04/04 08:07:45;;;;;;;5.70;1.37;;;11.80;99.90;;;;;;5061574;28;20213;-57
2024/04/04 08:10:13;;;;;;;3.30;1.10;;;11.80;99.90;;;;;;5068747;28;20202;-58
2024/04/04 08:12:40;;;;;;;3.63;1.30;;;11.80;99.90;;;;;;5037599;28;20228;-58
2024/04/04 08:15:10;;;;;;;4.13;1.20;;;11.70;99.90;;;;;;5066782;28;20202;-58
2024/04/04 08:17:36;;;;;;;5.00;1.60;;;11.60;99.90;;;;;;5069051;28;20294;-58
2024/04/04 08:20:04;;;;;;;2.93;0.97;;;11.50;99.90;;;;;;5070822;28;20673;-59
2024/04/04 08:22:30;;;;;;;5.37;1.40;;;11.50;99.90;;;;;;5057808;28;20186;-58
2024/04/04 08:24:57;;;;;;;3.93;1.20;;;11.50;99.90;;;;;;5068500;28;20232;-57
2024/04/04 08:27:25;;;;;;;3.90;1.10;;;11.50;99.90;;;;;;5033220;28;20229;-59
2024/04/04 08:29:52;;;;;;;4.10;1.10;;;11.40;99.90;;;;;;5077964;28;20555;-58
2024/04/04 08:32:19;;;;;;;3.77;1.10;;;11.40;99.90;;;;;;5065752;28;20210;-58
2024/04/04 08:34:46;;;;;;;4.80;1.30;;;11.30;99.90;;;;;;5075954;28;20221;-59
2024/04/04 08:37:12;;;;;;;3.83;1.40;;;11.30;99.90;;;;;;5053172;28;20241;-59
2024/04/04 08:39:39;;;;;;;2.47;1.07;;;11.20;99.90;;;;;;5077358;28;20307;-59
2024/04/04 08:42:05;;;;;;;3.23;1.00;;;11.20;99.90;;;;;;5060043;28;20198;-60
2024/04/04 08:44:32;;;;;;;2.23;1.17;;;11.20;99.90;;;;;;5070389;28;20209;-57
2024/04/04 08:46:59;;;;;;;3.23;1.10;;;11.20;99.90;;;;;;5072899;28;20595;-59
2024/04/04 08:49:29;;;;;;;4.27;1.37;;;11.10;99.90;;;;;;5057414;28;20254;-59
2024/04/04 08:51:56;;;;;;;3.87;1.37;;;11.10;99.90;;;;;;5074464;28;20663;-60
2024/04/04 08:54:23;;;;;;;2.50;1.70;;;11.10;99.90;;;;;;5065634;28;20193;-59
2024/04/04 08:56:49;;;;;;;4.27;1.57;;;11.10;99.90;;;;;;5085243;28;20205;-59
2024/04/04 08:59:16;;;;;;;4.10;1.30;;;11.00;99.90;;;;;;5049781;28;20186;-57
2024/04/04 09:01:43;;;;;;;5.70;1.50;;;10.90;99.90;;;;;;5064297;28;20206;-60
2024/04/04 09:04:10;;;;;;;4.57;1.40;;;10.90;99.90;;;;;;5064765;28;20210;-59
2024/04/04 09:06:38;;;;;;;4.67;1.60;;;10.80;99.90;;;;;;5061226;28;20203;-60
2024/04/04 09:09:07;;;;;;;5.27;1.50;;;10.80;99.90;;;;;;5074986;28;20225;-61
2024/04/04 09:11:34;;;;;;;5.50;1.60;;;10.70;99.90;;;;;;5072769;28;20186;-61
2024/04/04 09:14:04;;;;;;;3.07;1.33;;;10.70;99.90;;;;;;5052385;28;20214;-60
2024/04/04 09:16:31;;;;;;;4.83;1.80;;;10.70;99.90;;;;;;5060081;28;20193;-60
2024/04/04 09:19:14;;;;;;;4.70;1.60;;;10.70;99.90;;;;;;5070310;28;20221;-60
2024/04/04 09:21:44;;;;;;;5.47;2.00;;;10.60;99.90;;;;;;5078085;28;20202;-59
2024/04/04 09:24:13;;;;;;;2.43;1.57;;;10.60;99.90;;;;;;5064282;28;20250;-58
2024/04/04 09:26:40;;;;;;;3.77;1.20;;;10.60;99.90;;;;;;5073125;28;20210;-62
2024/04/04 09:29:08;;;;;;;2.00;1.30;;;10.60;99.90;;;;;;5045155;28;20210;-59
2024/04/04 09:31:37;;;;;;;8.00;1.70;;;10.60;99.90;;;;;;5064841;28;20220;-58
2024/04/04 09:34:04;;;;;;;4.97;1.27;;;10.60;99.90;;;;;;5062772;28;20182;-59
2024/04/04 09:36:32;;;;;;;4.63;1.50;;;10.50;99.90;;;;;;5074914;28;20201;-59
2024/04/04 09:39:02;;;;;;;6.07;1.53;;;10.50;99.90;;;;;;5077649;28;20217;-59
2024/04/04 09:41:29;;;;;;;4.00;1.50;;;10.60;99.90;;;;;;5070650;28;20190;-59
2024/04/04 09:43:57;;;;;;;3.70;1.23;;;10.60;99.90;;;;;;5042393;28;20754;-59
2024/04/04 09:46:25;;;;;;;3.27;1.50;;;10.50;99.90;;;;;;5067255;28;20701;-59
2024/04/04 09:48:53;;;;;;;3.93;1.13;;;10.50;99.90;;;;;;5075472;28;20306;-60
2024/04/04 09:51:20;;;;;;;5.63;1.67;;;10.50;99.90;;;;;;5070605;28;20201;-60
2024/04/04 09:53:48;;;;;;;5.60;1.50;;;10.50;99.90;;;;;;5083419;28;20190;-60
2024/04/04 09:56:19;;;;;;;3.43;1.30;;;10.40;99.90;;;;;;5070106;28;20198;-59
2024/04/04 09:58:46;;;;;;;3.30;1.57;;;10.40;99.90;;;;;;5064715;28;21019;-60
2024/04/04 10:01:19;;;;;;;6.03;1.40;;;10.40;99.90;;;;;;5049344;28;20209;-59
2024/04/04 10:03:50;;;;;;;3.30;1.30;;;10.30;99.90;;;;;;5078684;28;20238;-60
2024/04/04 10:06:32;;;;;;;3.90;1.30;;;10.30;99.90;;;;;;5075220;28;20214;-60
2024/04/04 10:08:59;;;;;;;3.53;1.50;;;10.30;99.90;;;;;;5086336;28;20209;-60
2024/04/04 10:11:30;;;;;;;7.13;1.53;;;10.30;99.90;;;;;;5062882;28;20227;-59
2024/04/04 10:14:01;;;;;;;4.67;1.70;;;10.30;99.90;;;;;;5073363;28;20690;-59
2024/04/04 10:16:35;;;;;;;5.83;1.40;;;10.30;99.90;;;;;;5043552;28;20285;-59
2024/04/04 10:19:10;;;;;;;4.57;1.70;;;10.30;99.90;;;;;;5077053;28;20700;-61
2024/04/04 10:21:36;;;;;;;5.13;1.67;;;10.20;99.90;;;;;;5069801;28;20193;-60
2024/04/04 10:24:03;;;;;;;3.30;2.00;;;10.20;99.90;;;;;;5083918;28;20255;-59
2024/04/04 10:26:31;;;;;;;9.07;1.50;;;10.20;99.90;;;;;;5061965;28;21096;-60
2024/04/04 10:28:58;;;;;;;3.17;1.87;;;10.20;99.90;;;;;;5070916;28;20214;-60
2024/04/04 10:31:24;;;;;;;5.33;1.73;;;10.20;99.90;;;;;;5050751;28;20295;-59
2024/04/04 10:34:01;;;;;;;4.80;1.60;;;10.20;99.90;;;;;;5074589;28;20205;-60
2024/04/04 10:36:41;;;;;;;5.70;1.97;;;10.20;99.90;;;;;;5071794;28;20206;-60
2024/04/04 10:39:12;;;;;;;5.87;1.27;;;10.20;99.90;;;;;;5084492;28;20894;-59
2024/04/04 10:41:41;;;;;;;4.27;2.00;;;10.30;99.90;;;;;;5075961;28;20341;-60
2024/04/04 10:44:12;;;;;;;3.33;1.43;;;10.30;99.90;;;;;;5069799;28;20206;-60
2024/04/04 10:46:47;;;;;;;3.43;1.73;;;10.30;99.90;;;;;;5038465;28;21927;-60
2024/04/04 10:49:15;;;;;;;5.10;1.37;;;10.30;99.90;;;;;;5068836;28;20247;-60
2024/04/04 10:51:48;;;;;;;4.47;1.50;;;10.30;99.90;;;;;;5078609;28;20274;-60
2024/04/04 10:54:15;;;;;;;5.80;1.80;;;10.30;99.90;;;;;;5073398;28;20862;-59
2024/04/04 10:56:45;;;;;;;5.07;1.40;;;10.30;99.90;;;;;;5086535;28;20206;-60
2024/04/04 10:59:11;;;;;;;2.93;1.43;;;10.40;99.90;;;;;;5052325;28;20194;-59
2024/04/04 11:01:40;;;;;;;5.23;2.03;;;10.40;99.90;;;;;;5056162;28;20279;-60
2024/04/04 11:04:10;;;;;;;3.63;1.70;;;10.40;99.90;;;;;;5085173;28;20229;-59
2024/04/04 11:06:37;;;;;;;2.87;1.30;;;10.40;99.90;;;;;;5074558;28;20877;-60
2024/04/04 11:09:10;;;;;;;3.10;1.93;;;10.40;99.90;;;;;;5066857;28;20245;-59
2024/04/04 11:11:37;;;;;;;2.10;1.90;;;10.40;99.90;;;;;;5083407;28;20185;-60
2024/04/04 11:14:05;;;;;;;3.97;2.37;;;10.40;99.90;;;;;;5083523;28;20741;-59
2024/04/04 11:16:32;;;;;;;3.83;1.90;;;10.50;99.90;;;;;;5026403;28;21915;-60
2024/04/04 11:18:58;;;;;;;4.03;2.57;;;10.50;99.90;;;;;;5082502;28;20225;-60
2024/04/04 11:21:25;;;;;;;2.30;1.97;;;10.50;99.90;;;;;;5051957;28;21652;-59
2024/04/04 11:23:51;;;;;;;3.00;2.40;;;10.60;99.90;;;;;;5064256;28;20214;-59
2024/04/04 11:26:20;;;;;;;6.87;2.77;;;10.70;99.90;;;;;;5079884;28;20884;-60
2024/04/04 11:28:46;;;;;;;3.20;2.50;;;10.70;99.90;;;;;;5082712;28;20230;-59
2024/04/04 11:31:14;;;;;;;4.03;2.20;;;10.70;99.90;;;;;;5068199;28;20822;-60
2024/04/04 11:33:40;;;;;;;4.33;2.67;;;10.70;99.90;;;;;;5058050;28;20217;-59
2024/04/04 11:36:07;;;;;;;7.53;2.53;;;10.70;99.90;;;;;;5065286;28;20928;-59
2024/04/04 11:38:33;;;;;;;2.60;2.33;;;10.70;99.90;;;;;;5084184;28;20218;-60
2024/04/04 11:41:00;;;;;;;3.07;2.77;;;10.80;99.90;;;;;;5072656;28;20198;-59
2024/04/04 11:43:26;;;;;;;2.43;2.23;;;10.80;99.90;;;;;;5086145;28;20206;-60
2024/04/04 11:45:53;;;;;;;3.33;2.73;;;10.80;99.90;;;;;;5073397;28;20611;-60
2024/04/04 11:48:21;;;;;;;3.90;2.00;;;10.80;99.90;;;;;;5044189;28;20213;-60
2024/04/04 11:50:47;;;;;;;2.90;2.70;;;10.80;99.90;;;;;;5074839;28;20668;-59
2024/04/04 11:53:14;;;;;;;2.80;2.50;;;10.90;99.90;;;;;;5072155;28;20189;-60
2024/04/04 11:55:41;;;;;;;2.93;2.47;;;10.90;99.90;;;;;;5081824;28;20198;-59
2024/04/04 11:58:08;;;;;;;2.73;2.33;;;11.00;99.90;;;;;;5085479;28;20824;-59
2024/04/04 12:00:34;;;;;;;2.70;2.00;;;11.00;99.90;;;;;;5090124;28;20208;-59
2024/04/04 12:03:03;;;;;;;2.67;2.30;;;11.10;99.90;;;;;;5043530;28;20198;-59
2024/04/04 12:05:31;;;;;;;5.13;2.03;;;11.10;99.90;;;;;;5067888;28;20205;-60
2024/04/04 12:07:59;;;;;;;2.20;2.00;;;11.20;99.90;;;;;;5073631;28;20226;-59
2024/04/04 12:10:25;;;;;;;2.93;1.80;;;11.20;99.90;;;;;;5059196;28;20201;-60
2024/04/04 12:12:53;;;;;;;3.87;2.30;;;11.20;99.90;;;;;;5070074;28;20614;-59
2024/04/04 12:15:19;;;;;;;1.80;1.70;;;11.20;99.90;;;;;;5084615;28;20194;-59
2024/04/04 12:17:47;;;;;;;1.77;1.67;;;11.30;99.90;;;;;;5074333;28;20211;-59
2024/04/04 12:20:19;;;;;;;3.10;2.13;;;11.30;99.90;;;;;;5051052;28;20252;-60
2024/04/04 12:22:47;;;;;;;3.43;2.17;;;11.30;99.90;;;;;;5075640;28;20202;-59
2024/04/04 12:25:15;;;;;;;2.80;2.30;;;11.40;99.90;;;;;;5062448;28;20214;-60
2024/04/04 12:27:43;;;;;;;3.90;2.53;;;11.50;99.90;;;;;;5075429;28;20336;-60
2024/04/04 12:30:10;;;;;;;4.90;2.60;;;11.50;99.90;;;;;;5076730;28;20203;-61
2024/04/04 12:32:37;;;;;;;3.43;2.87;;;11.60;99.90;;;;;;5078144;28;20213;-61
2024/04/04 12:35:03;;;;;;;4.40;2.70;;;11.60;99.90;;;;;;5031383;28;20269;-60
2024/04/04 12:37:30;;;;;;;3.87;2.60;;;11.60;99.90;;;;;;5075108;28;20224;-59
2024/04/04 12:39:57;;;;;;;2.80;2.60;;;11.70;99.90;;;;;;5079594;28;20194;-60
2024/04/04 12:42:24;;;;;;;3.73;3.23;;;11.80;99.90;;;;;;5076829;28;20528;-61
2024/04/04 12:44:50;;;;;;;3.87;3.57;;;12.00;99.90;;;;;;5075314;28;20274;-60